Main page
METAR-TAF:

METAR-TAF

Airports :

Shreveport Downtown Airport

Shreveport, Louisiana, United States

latitude: 32-32-33N, longitude: 093-44-41W, elevation: 177 ft

Current weather observation

The report was made 12 minutes ago, at 17:53 UTC
Wind 5 mph from the Southwest
Temperature 77°F
Humidity 89%
Pressure 30.08 in. Hg
Visibility: 10 miles
Scattered clouds at a height of 800 ft
Broken clouds at a height of 4400 ft
Overcast at a height of 11000 ft
light rain

METAR: KDTN 231753Z 23004KT 10SM -RA SCT008 BKN044 OVC110 25/23 A3008 RMK AO2 SLP185 P0004 60019 T02500228 10250 20239 50000

Time: 13:05 (18:05 UTC)


TAF: missing

Weather observations and forecasts of more than 4000 airports (METAR and TAF reports).

The available stations are represented by yellow and red dots on the map.

Hover mouse over dot to see the name of the station.

Then click to see weather observations and forecasts.

To change the map : click on the green buttons with a black cross to zoom in, on the green button with a dash to zoom out, or on the green arrows for adjacent maps.


METAR-TAF: